createdAt,value
2019-05-02T00:00:36.374Z,23.92
2019-05-02T00:03:06.078Z,24.97
2019-05-02T00:05:35.888Z,25.20
2019-05-02T00:08:05.494Z,23.90
2019-05-02T00:10:35.921Z,25.02
2019-05-02T00:13:05.350Z,24.98
2019-05-02T00:15:38.237Z,24.63
2019-05-02T00:18:06.481Z,25.05
2019-05-02T00:20:35.897Z,23.67
2019-05-02T00:23:05.112Z,24.67
2019-05-02T00:25:34.898Z,25.20
2019-05-02T00:28:07.681Z,25.80
2019-05-02T00:30:36.126Z,25.25
2019-05-02T00:33:05.974Z,26.00
2019-05-02T00:35:35.321Z,25.62
2019-05-02T00:38:04.981Z,25.82
2019-05-02T00:40:34.689Z,25.77
2019-05-02T00:43:04.409Z,25.60
2019-05-02T00:45:33.761Z,25.12
2019-05-02T00:48:05.792Z,24.05
2019-05-02T00:50:40.744Z,25.43
2019-05-02T00:53:12.211Z,25.65
2019-05-02T00:55:42.374Z,25.92
2019-05-02T00:58:12.191Z,25.92
2019-05-02T01:00:59.648Z,25.25
2019-05-02T01:03:32.008Z,26.02
2019-05-02T01:06:02.001Z,26.30
2019-05-02T01:08:35.686Z,26.57
2019-05-02T01:11:03.158Z,27.10
2019-05-02T01:13:32.874Z,25.65
2019-05-02T01:16:02.581Z,28.10
2019-05-02T01:18:32.288Z,26.52
2019-05-02T01:21:02.713Z,27.77
2019-05-02T01:23:34.068Z,27.40
2019-05-02T01:26:03.349Z,26.95
2019-05-02T01:28:49.167Z,26.15
2019-05-02T01:31:22.340Z,26.82
2019-05-02T01:33:56.363Z,25.80
2019-05-02T01:39:13.845Z,26.15
2019-05-02T01:41:43.354Z,26.48
2019-05-02T01:44:12.673Z,27.45
2019-05-02T01:46:42.425Z,26.23
2019-05-02T01:49:12.124Z,25.80
2019-05-02T01:51:42.046Z,25.77
2019-05-02T01:54:12.873Z,26.42
2019-05-02T01:56:42.689Z,25.88
2019-05-02T01:59:12.300Z,26.60
2019-05-02T02:01:41.861Z,24.98
2019-05-02T02:04:11.414Z,26.25
2019-05-02T02:06:43.410Z,25.85
2019-05-02T02:09:12.680Z,24.32
2019-05-02T02:11:42.386Z,26.68
2019-05-02T02:14:12.866Z,24.35
2019-05-02T02:16:43.541Z,24.77
2019-05-02T02:19:26.878Z,24.67
2019-05-02T02:22:02.687Z,24.97
2019-05-02T02:24:33.515Z,23.85
2019-05-02T02:27:03.377Z,25.88
2019-05-02T02:29:32.792Z,25.60
2019-05-02T02:32:02.499Z,25.65
2019-05-02T02:34:32.585Z,24.82
2019-05-02T02:37:05.327Z,25.15
2019-05-02T02:39:33.829Z,23.45
2019-05-02T02:42:03.581Z,23.90
2019-05-02T02:44:40.094Z,25.08
2019-05-02T02:47:12.035Z,23.25
2019-05-02T02:49:39.880Z,23.80
2019-05-02T02:52:09.602Z,23.62
2019-05-02T02:54:43.428Z,23.47
2019-05-02T02:57:20.546Z,24.00
2019-05-02T02:59:41.590Z,23.75
2019-05-02T03:02:12.193Z,23.02
2019-05-02T03:04:44.241Z,24.43
2019-05-02T03:07:24.040Z,23.70
2019-05-02T03:09:44.736Z,22.70
2019-05-02T03:12:21.918Z,22.85
2019-05-02T03:14:55.733Z,21.62
2019-05-02T03:17:25.970Z,22.80
2019-05-02T03:20:01.587Z,23.05
2019-05-02T03:22:27.415Z,21.75
2019-05-02T03:24:57.021Z,23.30
2019-05-02T03:27:29.691Z,24.60
2019-05-02T03:29:57.781Z,23.10
2019-05-02T03:32:34.264Z,22.82
2019-05-02T03:34:58.947Z,22.95
2019-05-02T03:37:28.663Z,23.45
2019-05-02T03:40:00.701Z,22.17
2019-05-02T03:42:29.600Z,22.30
2019-05-02T03:45:04.309Z,22.30
2019-05-02T03:47:30.348Z,22.15
2019-05-02T03:50:01.087Z,22.37
2019-05-02T03:52:36.662Z,23.57
2019-05-02T03:55:02.145Z,22.02
2019-05-02T03:57:35.684Z,21.60
2019-05-02T04:00:04.128Z,22.30
2019-05-02T04:02:33.730Z,21.15
2019-05-02T04:05:03.615Z,21.62
2019-05-02T04:07:39.744Z,21.10
2019-05-02T04:10:07.423Z,22.05
2019-05-02T04:12:36.824Z,22.90
2019-05-02T04:15:09.551Z,22.55
2019-05-02T04:17:37.543Z,21.85
2019-05-02T04:20:10.209Z,20.75
2019-05-02T04:22:42.973Z,21.12
2019-05-02T04:25:10.436Z,20.65
2019-05-02T04:27:40.153Z,21.42
2019-05-02T04:30:13.898Z,20.17
2019-05-02T04:32:43.125Z,20.32
2019-05-02T04:35:12.157Z,20.23
2019-05-02T04:37:43.797Z,19.48
2019-05-02T04:40:13.009Z,19.27
2019-05-02T04:42:42.822Z,20.25
2019-05-02T04:45:25.223Z,20.62
2019-05-02T04:47:57.459Z,17.23
2019-05-02T04:50:24.290Z,18.10
2019-05-02T04:52:48.438Z,18.10
2019-05-02T04:55:28.034Z,17.87
2019-05-02T04:57:50.979Z,17.75
2019-05-02T05:00:28.641Z,17.62
2019-05-02T05:02:58.730Z,16.75
2019-05-02T05:05:31.282Z,17.65
2019-05-02T05:07:59.418Z,16.90
2019-05-02T05:10:40.318Z,16.60
2019-05-02T05:13:00.533Z,16.02
2019-05-02T05:15:37.942Z,16.55
2019-05-02T05:18:04.537Z,16.42
2019-05-02T05:20:33.142Z,16.70
2019-05-02T05:23:02.960Z,15.98
2019-05-02T05:25:37.867Z,16.05
2019-05-02T05:28:09.050Z,16.27
2019-05-02T05:30:45.381Z,17.60
2019-05-02T05:33:10.355Z,17.48
2019-05-02T05:35:43.192Z,16.95
2019-05-02T05:38:11.254Z,17.45
2019-05-02T05:40:40.578Z,17.73
2019-05-02T05:43:15.625Z,17.82
2019-05-02T05:45:53.351Z,17.35
2019-05-02T05:48:14.819Z,17.42
2019-05-02T05:50:47.663Z,17.07
2019-05-02T05:53:19.164Z,17.37
2019-05-02T05:55:48.022Z,17.10
2019-05-02T05:58:18.815Z,17.32
2019-05-02T06:00:53.857Z,17.55
2019-05-02T06:03:19.793Z,16.48
2019-05-02T06:05:49.739Z,16.52
2019-05-02T06:08:19.985Z,16.48
2019-05-02T06:10:50.189Z,16.82
2019-05-02T06:13:19.472Z,15.65
2019-05-02T06:16:00.975Z,16.65
2019-05-02T06:18:19.784Z,15.72
2019-05-02T06:20:49.067Z,16.27
2019-05-02T06:23:18.838Z,16.32
2019-05-02T06:25:48.540Z,15.48
2019-05-02T06:28:17.818Z,15.58
2019-05-02T06:30:47.766Z,16.50
2019-05-02T06:33:17.484Z,16.05
2019-05-02T06:35:47.181Z,15.65
2019-05-02T06:38:21.594Z,16.50
2019-05-02T06:40:48.125Z,15.98
2019-05-02T06:43:17.841Z,16.00
2019-05-02T06:45:47.709Z,15.25
2019-05-02T06:48:18.822Z,15.18
2019-05-02T06:50:48.817Z,15.15
2019-05-02T06:53:18.661Z,14.75
2019-05-02T06:55:48.049Z,15.63
2019-05-02T06:58:17.742Z,15.18
2019-05-02T07:00:57.480Z,15.08
2019-05-02T07:03:18.796Z,15.40
2019-05-02T07:05:49.120Z,15.38
2019-05-02T07:08:20.030Z,14.90
2019-05-02T07:10:49.780Z,15.63
2019-05-02T07:13:19.482Z,15.05
2019-05-02T07:15:54.006Z,15.18
2019-05-02T07:18:47.537Z,14.70
2019-05-02T07:21:17.315Z,15.13
2019-05-02T07:23:48.602Z,13.28
2019-05-02T07:26:21.004Z,14.25
2019-05-02T07:28:47.777Z,14.53
2019-05-02T07:31:17.461Z,13.93
2019-05-02T07:33:47.180Z,14.73
2019-05-02T07:36:16.877Z,14.78
2019-05-02T07:38:46.487Z,14.68
2019-05-02T07:41:15.937Z,14.13
2019-05-02T07:43:46.621Z,14.68
2019-05-02T07:46:20.883Z,15.05
2019-05-02T07:48:48.983Z,14.15
2019-05-02T07:51:21.239Z,15.48
2019-05-02T07:53:50.164Z,14.18
2019-05-02T07:56:19.787Z,15.00
2019-05-02T07:58:49.489Z,14.28
2019-05-02T08:01:19.303Z,14.87
2019-05-02T08:03:49.013Z,14.10
2019-05-02T08:06:18.720Z,15.40
2019-05-02T08:08:48.434Z,13.15
2019-05-02T08:11:18.041Z,15.88
2019-05-02T08:13:49.517Z,14.93
2019-05-02T08:16:22.307Z,14.78
2019-05-02T08:18:50.961Z,14.33
2019-05-02T08:21:20.769Z,15.98
2019-05-02T08:23:50.382Z,15.75
2019-05-02T08:26:21.710Z,14.45
2019-05-02T08:28:53.288Z,14.90
2019-05-02T08:31:22.788Z,15.03
2019-05-02T08:33:52.508Z,14.78
2019-05-02T08:36:21.893Z,15.48
2019-05-02T08:38:53.744Z,15.20
2019-05-02T08:41:22.645Z,15.00
2019-05-02T08:43:52.361Z,14.45
2019-05-02T08:46:22.081Z,14.45
2019-05-02T08:48:51.773Z,13.88
2019-05-02T08:51:21.382Z,13.72
2019-05-02T08:53:52.143Z,13.95
2019-05-02T08:56:22.913Z,14.68
2019-05-02T08:58:52.375Z,14.23
2019-05-02T09:01:34.313Z,14.63
2019-05-02T09:03:56.423Z,14.45
2019-05-02T09:06:24.165Z,14.80
2019-05-02T09:08:53.695Z,14.53
2019-05-02T09:11:23.265Z,15.75
2019-05-02T09:13:53.077Z,13.10
2019-05-02T09:16:28.824Z,13.13
2019-05-02T09:18:54.360Z,13.68
2019-05-02T09:21:26.754Z,12.68
2019-05-02T09:23:55.194Z,13.72
2019-05-02T09:26:35.048Z,13.43
2019-05-02T09:28:56.205Z,13.78
2019-05-02T09:31:26.885Z,12.98
2019-05-02T09:33:56.309Z,12.60
2019-05-02T09:36:26.002Z,12.93
2019-05-02T09:38:57.719Z,13.93
2019-05-02T09:41:32.406Z,13.60
2019-05-02T09:43:59.021Z,14.50
2019-05-02T09:46:28.375Z,14.07
2019-05-02T09:49:04.275Z,12.50
2019-05-02T09:51:29.317Z,12.85
2019-05-02T09:54:04.707Z,13.25
2019-05-02T09:56:32.395Z,13.48
2019-05-02T09:59:14.836Z,13.28
2019-05-02T10:01:35.182Z,13.68
2019-05-02T10:04:04.870Z,13.83
2019-05-02T10:06:34.603Z,13.48
2019-05-02T10:09:06.053Z,14.73
2019-05-02T10:11:36.377Z,12.80
2019-05-02T10:14:06.257Z,11.48
2019-05-02T10:16:36.288Z,11.53
2019-05-02T10:19:10.748Z,11.53
2019-05-02T10:21:37.470Z,11.55
2019-05-02T10:24:07.287Z,11.78
2019-05-02T10:26:36.716Z,11.10
2019-05-02T10:29:06.687Z,9.98
2019-05-02T10:31:37.812Z,10.13
2019-05-02T10:34:08.544Z,10.32
2019-05-02T10:36:39.118Z,11.00
2019-05-02T10:39:08.946Z,10.08
2019-05-02T10:41:39.343Z,9.98
2019-05-02T10:44:09.980Z,9.48
2019-05-02T10:46:44.297Z,9.83
2019-05-02T10:49:15.728Z,11.30
2019-05-02T10:51:49.561Z,11.12
2019-05-02T10:54:16.712Z,10.75
2019-05-02T10:56:46.625Z,10.38
2019-05-02T10:59:16.978Z,10.03
2019-05-02T11:01:57.304Z,11.25
2019-05-02T11:04:29.291Z,10.60
2019-05-02T11:07:02.642Z,9.00
2019-05-02T11:09:32.473Z,8.35
2019-05-02T11:12:03.890Z,8.80
2019-05-02T11:14:51.664Z,9.15
2019-05-02T11:17:23.219Z,8.98
2019-05-02T11:20:06.451Z,8.28
2019-05-02T11:22:36.110Z,8.78
2019-05-02T11:25:06.851Z,9.70
2019-05-02T11:27:36.601Z,9.60
2019-05-02T11:30:08.166Z,9.80
2019-05-02T11:32:37.962Z,9.30
2019-05-02T11:35:07.570Z,10.43
2019-05-02T11:37:37.254Z,9.05
2019-05-02T11:40:12.571Z,11.25
2019-05-02T11:42:41.750Z,11.78
2019-05-02T11:45:12.118Z,9.40
2019-05-02T11:47:42.468Z,10.00
2019-05-02T11:50:12.285Z,9.70
2019-05-02T11:52:42.545Z,9.43
2019-05-02T11:55:12.940Z,8.95
2019-05-02T11:57:42.882Z,8.50
2019-05-02T12:00:12.762Z,8.90
2019-05-02T12:02:44.214Z,9.88
2019-05-02T12:05:18.456Z,9.13
2019-05-02T12:07:48.132Z,9.33
2019-05-02T12:10:17.746Z,8.78
2019-05-02T12:12:47.455Z,10.23
2019-05-02T12:15:17.270Z,9.58
2019-05-02T12:17:47.175Z,9.53
2019-05-02T12:20:16.921Z,9.50
2019-05-02T12:22:46.641Z,8.63
2019-05-02T12:25:16.334Z,8.68
2019-05-02T12:27:46.027Z,8.93
2019-05-02T12:30:16.045Z,9.35
2019-05-02T12:32:45.652Z,8.90
2019-05-02T12:35:15.362Z,9.18
2019-05-02T12:37:47.036Z,9.93
2019-05-02T12:40:16.623Z,9.23
2019-05-02T12:42:45.997Z,9.18
2019-05-02T12:45:15.730Z,7.97
2019-05-02T12:47:45.346Z,8.73
2019-05-02T12:50:15.060Z,8.05
2019-05-02T12:52:44.763Z,8.08
2019-05-02T12:55:14.569Z,8.28
2019-05-02T12:57:44.177Z,8.65
2019-05-02T13:00:13.569Z,7.92
2019-05-02T13:02:48.106Z,8.20
2019-05-02T13:05:17.717Z,8.13
2019-05-02T13:07:50.352Z,8.20
2019-05-02T13:10:32.709Z,9.25
2019-05-02T13:13:02.780Z,8.18
2019-05-02T13:15:32.981Z,8.43
2019-05-02T13:18:03.063Z,7.55
2019-05-02T13:20:34.666Z,6.90
2019-05-02T13:23:05.706Z,6.97
2019-05-02T13:25:36.866Z,7.17
2019-05-02T13:28:06.414Z,7.05
2019-05-02T13:30:42.848Z,7.78
2019-05-02T13:33:12.037Z,6.50
2019-05-02T13:35:45.679Z,7.00
2019-05-02T13:40:45.809Z,7.72
2019-05-02T13:43:15.657Z,7.40
2019-05-02T13:45:48.508Z,7.08
2019-05-02T13:48:18.110Z,6.55
2019-05-02T13:50:47.930Z,7.80
2019-05-02T13:53:17.745Z,7.25
2019-05-02T13:55:55.432Z,7.22
2019-05-02T13:58:28.813Z,7.70
2019-05-02T14:00:56.704Z,7.35
2019-05-02T14:03:26.516Z,7.08
2019-05-02T14:05:56.022Z,7.37
2019-05-02T14:08:33.099Z,7.53
2019-05-02T14:11:09.167Z,7.80
2019-05-02T14:13:38.874Z,7.37
2019-05-02T14:16:08.677Z,6.67
2019-05-02T14:18:37.996Z,6.70
2019-05-02T14:21:07.696Z,6.85
2019-05-02T14:23:37.404Z,6.95
2019-05-02T14:26:07.214Z,6.90
2019-05-02T14:28:37.034Z,8.30
2019-05-02T14:31:06.840Z,8.33
2019-05-02T14:33:38.196Z,8.63
2019-05-02T14:36:07.606Z,8.68
2019-05-02T14:38:37.102Z,7.05
2019-05-02T14:41:08.144Z,7.42
2019-05-02T14:43:53.185Z,6.92
2019-05-02T14:46:23.261Z,6.78
2019-05-02T14:48:53.146Z,5.90
2019-05-02T14:51:27.762Z,6.40
2019-05-02T14:53:57.469Z,6.17
2019-05-02T14:56:32.669Z,7.37
2019-05-02T14:59:02.661Z,7.60
2019-05-02T15:01:32.541Z,8.00
2019-05-02T15:04:08.343Z,6.50
2019-05-02T15:06:38.324Z,6.53
2019-05-02T15:09:11.953Z,8.25
2019-05-02T15:11:59.547Z,7.95
2019-05-02T15:14:32.649Z,6.05
2019-05-02T15:17:02.684Z,5.85
2019-05-02T15:19:33.098Z,7.30
2019-05-02T15:22:03.101Z,6.67
2019-05-02T15:24:37.416Z,6.83
2019-05-02T15:27:11.795Z,7.03
2019-05-02T15:29:35.421Z,7.20
2019-05-02T15:32:25.535Z,6.60
2019-05-02T15:35:03.216Z,6.35
2019-05-02T15:37:35.722Z,7.20
2019-05-02T15:42:39.589Z,6.80
2019-05-02T15:45:10.192Z,7.33
2019-05-02T15:47:41.544Z,5.35
2019-05-02T15:50:14.731Z,5.95
2019-05-02T15:52:44.059Z,6.70
2019-05-02T15:55:13.771Z,7.50
2019-05-02T15:57:45.995Z,6.08
2019-05-02T16:00:24.506Z,6.00
2019-05-02T16:02:47.349Z,5.67
2019-05-02T16:05:17.217Z,5.20
2019-05-02T16:07:47.040Z,6.00
2019-05-02T16:10:16.837Z,5.80
2019-05-02T16:12:47.789Z,5.95
2019-05-02T16:15:21.384Z,5.62
2019-05-02T16:17:48.743Z,5.00
2019-05-02T16:20:20.266Z,5.80
2019-05-02T16:22:50.084Z,5.72
2019-05-02T16:25:24.381Z,6.05
2019-05-02T16:27:52.864Z,4.80
2019-05-02T16:30:23.457Z,6.45
2019-05-02T16:32:54.783Z,5.30
2019-05-02T16:35:26.235Z,6.25
2019-05-02T16:37:56.127Z,6.28
2019-05-02T16:40:29.895Z,5.80
2019-05-02T16:42:57.133Z,5.92
2019-05-02T16:45:26.914Z,5.40
2019-05-02T16:48:00.617Z,5.50
2019-05-02T16:50:32.374Z,5.67
2019-05-02T16:52:59.114Z,4.92
2019-05-02T16:55:28.930Z,5.28
2019-05-02T16:58:05.216Z,4.72
2019-05-02T17:00:29.672Z,4.80
2019-05-02T17:02:59.030Z,5.55
2019-05-02T17:05:28.796Z,5.58
2019-05-02T17:08:02.140Z,5.12
2019-05-02T17:10:35.056Z,4.45
2019-05-02T17:13:05.596Z,5.25
2019-05-02T17:15:38.595Z,5.22
2019-05-02T17:18:18.210Z,4.93
2019-05-02T17:20:39.556Z,4.90
2019-05-02T17:23:09.359Z,5.15
2019-05-02T17:25:39.275Z,5.40
2019-05-02T17:28:11.226Z,5.33
2019-05-02T17:30:42.533Z,5.05
2019-05-02T17:33:14.961Z,4.87
2019-05-02T17:35:49.635Z,4.53
2019-05-02T17:38:13.868Z,5.30
2019-05-02T17:40:43.572Z,5.35
2019-05-02T17:43:13.386Z,5.20
2019-05-02T17:45:43.003Z,5.58
2019-05-02T17:48:16.245Z,5.12
2019-05-02T17:50:49.321Z,5.35
2019-05-02T17:53:19.664Z,6.85
2019-05-02T17:55:49.413Z,5.37
2019-05-02T17:58:19.221Z,5.40
2019-05-02T18:00:52.324Z,6.10
2019-05-02T18:03:24.270Z,5.80
2019-05-02T18:05:53.478Z,5.60
2019-05-02T18:08:23.190Z,5.62
2019-05-02T18:10:58.112Z,5.60
2019-05-02T18:13:23.938Z,6.50
2019-05-02T18:15:53.586Z,5.58
2019-05-02T18:18:23.362Z,6.12
2019-05-02T18:20:53.023Z,6.92
2019-05-02T18:23:25.812Z,6.33
2019-05-02T18:25:57.321Z,6.80
2019-05-02T18:28:26.563Z,7.95
2019-05-02T18:30:57.299Z,7.15
2019-05-02T18:33:27.657Z,7.22
2019-05-02T18:35:57.383Z,7.30
2019-05-02T18:38:27.997Z,7.72
2019-05-02T18:41:00.206Z,7.17
2019-05-02T18:43:29.262Z,6.50
2019-05-02T18:46:05.942Z,7.22
2019-05-02T18:48:31.900Z,7.58
2019-05-02T18:51:02.800Z,8.43
2019-05-02T18:53:32.755Z,7.55
2019-05-02T18:56:03.643Z,7.65
2019-05-02T18:58:36.287Z,315.27
2019-05-02T19:01:08.513Z,648.62
2019-05-02T19:03:37.494Z,450.80
2019-05-02T19:06:08.358Z,193.22
2019-05-02T19:08:46.640Z,141.15
2019-05-02T19:11:12.325Z,79.92
2019-05-02T19:13:42.804Z,65.72
2019-05-02T19:16:13.148Z,82.33
2019-05-02T19:18:42.936Z,11.97
2019-05-02T19:21:12.757Z,48.13
2019-05-02T19:23:42.550Z,9.55
2019-05-02T19:26:14.673Z,8.98
2019-05-02T19:28:48.104Z,9.60
2019-05-02T19:31:18.237Z,9.05
2019-05-02T19:33:47.663Z,9.68
2019-05-02T19:36:24.359Z,9.60
2019-05-02T19:38:48.790Z,9.23
2019-05-02T19:41:18.504Z,9.70
2019-05-02T19:43:49.732Z,9.58
2019-05-02T19:46:24.453Z,9.50
2019-05-02T19:48:54.558Z,11.25
2019-05-02T19:53:59.545Z,9.83
2019-05-02T19:56:25.476Z,9.43
2019-05-02T19:58:55.176Z,9.00
2019-05-02T20:01:26.648Z,9.70
2019-05-02T20:03:56.723Z,10.75
2019-05-02T20:06:28.014Z,11.08
2019-05-02T20:08:59.193Z,11.22
2019-05-02T20:11:32.939Z,11.80
2019-05-02T20:14:01.902Z,9.65
2019-05-02T20:16:36.613Z,9.93
2019-05-02T20:19:04.070Z,10.48
2019-05-02T20:21:44.278Z,34.00
2019-05-02T20:24:15.296Z,9.93
2019-05-02T20:26:46.782Z,16.05
2019-05-02T20:29:16.276Z,10.18
2019-05-02T20:31:46.085Z,11.25
2019-05-02T20:34:16.286Z,10.82
2019-05-02T20:36:46.437Z,11.15
2019-05-02T20:39:15.862Z,11.53
2019-05-02T20:41:46.287Z,10.58
2019-05-02T20:44:16.177Z,11.08
2019-05-02T20:46:47.255Z,10.80
2019-05-02T20:49:18.685Z,11.50
2019-05-02T20:51:49.076Z,11.60
2019-05-02T20:54:19.169Z,11.78
2019-05-02T20:56:51.824Z,10.53
2019-05-02T20:59:21.856Z,11.08
2019-05-02T21:01:52.300Z,9.70
2019-05-02T21:04:22.834Z,10.72
2019-05-02T21:07:02.017Z,10.72
2019-05-02T21:09:34.407Z,10.38
2019-05-02T21:12:06.945Z,12.45
2019-05-02T21:14:38.140Z,12.40
2019-05-02T21:17:08.209Z,11.65
2019-05-02T21:19:38.026Z,11.33
2019-05-02T21:22:16.754Z,11.80
2019-05-02T21:24:46.433Z,11.12
2019-05-02T21:27:16.369Z,11.70
2019-05-02T21:29:45.821Z,11.83
2019-05-02T21:32:15.485Z,11.93
2019-05-02T21:34:45.103Z,11.90
2019-05-02T21:37:14.593Z,11.85
2019-05-02T21:39:44.415Z,11.48
2019-05-02T21:42:14.014Z,11.80
2019-05-02T21:44:43.755Z,11.63
2019-05-02T21:47:13.439Z,11.48
2019-05-02T21:49:44.735Z,11.10
2019-05-02T21:52:34.461Z,11.12
2019-05-02T21:55:26.182Z,11.60
2019-05-02T21:57:55.798Z,11.00
2019-05-02T22:00:27.145Z,11.63
2019-05-02T22:02:58.097Z,10.82
2019-05-02T22:05:27.794Z,12.15
2019-05-02T22:07:57.505Z,11.63
2019-05-02T22:10:27.114Z,11.20
2019-05-02T22:12:56.827Z,11.70
2019-05-02T22:15:26.429Z,11.30
2019-05-02T22:17:56.143Z,11.88
2019-05-02T22:20:25.858Z,35.28
2019-05-02T22:22:55.767Z,20.48
2019-05-02T22:25:25.474Z,18.60
2019-05-02T22:27:55.198Z,14.30
2019-05-02T22:30:24.903Z,12.95
2019-05-02T22:32:54.610Z,12.70
2019-05-02T22:35:24.422Z,12.10
2019-05-02T22:37:56.893Z,12.63
2019-05-02T22:40:26.705Z,12.28
2019-05-02T22:42:56.069Z,13.28
2019-05-02T22:45:25.818Z,12.73
2019-05-02T22:47:55.646Z,12.50
2019-05-02T22:50:25.063Z,13.03
2019-05-02T22:52:54.741Z,12.37
2019-05-02T22:55:24.554Z,11.85
2019-05-02T22:57:53.905Z,11.93
2019-05-02T23:00:23.765Z,11.68
2019-05-02T23:02:53.221Z,12.07
2019-05-02T23:05:22.985Z,12.18
2019-05-02T23:07:52.782Z,12.60
2019-05-02T23:10:22.823Z,12.93
2019-05-02T23:12:52.520Z,13.08
2019-05-02T23:15:21.903Z,15.78
2019-05-02T23:17:52.337Z,14.85
2019-05-02T23:20:24.240Z,13.58
2019-05-02T23:22:52.839Z,13.83
2019-05-02T23:25:23.788Z,14.35
2019-05-02T23:27:55.084Z,12.90
2019-05-02T23:30:25.304Z,11.33
2019-05-02T23:32:54.586Z,11.57
2019-05-02T23:35:24.217Z,12.07
2019-05-02T23:37:53.934Z,10.88
2019-05-02T23:40:23.537Z,11.55
2019-05-02T23:42:53.348Z,10.45
2019-05-02T23:45:22.957Z,10.65
2019-05-02T23:47:52.898Z,9.40
2019-05-02T23:50:23.045Z,10.55
2019-05-02T23:52:52.902Z,10.15
2019-05-02T23:55:22.837Z,9.80
2019-05-02T23:57:52.635Z,9.98
